Time;durP1;ratioP1;P1;durP2;ratioP2;P2;SDS_P1;SDS_P2;PMS_P1;PMS_P2;Temp;Humidity;BMP_temperature;BMP_pressure;BME280_temperature;BME280_humidity;BME280_pressure;Samples;Min_cycle;Max_cycle;Signal;HPM_P1;HPM_P2
2022/05/10 00:02:03;;;;;;;1.57;1.47;;;;;;;7.43;42.93;100436.56;1724016;83;21083;-75
2022/05/10 00:04:30;;;;;;;4.35;1.40;;;;;;;7.36;42.99;100432.26;1723742;83;21070;-75
2022/05/10 00:06:56;;;;;;;2.37;1.20;;;;;;;7.28;43.06;100435.78;1723982;83;21104;-76
2022/05/10 00:09:27;;;;;;;1.82;1.65;;;;;;;7.18;43.60;100432.38;1723514;82;21539;-76
2022/05/10 00:11:52;;;;;;;2.27;1.50;;;;;;;7.07;43.56;100443.74;1723979;82;21118;-75
2022/05/10 00:14:20;;;;;;;1.15;1.10;;;;;;;6.95;44.25;100434.66;1725489;83;21596;-76
2022/05/10 00:16:51;;;;;;;1.50;1.40;;;;;;;6.85;44.29;100434.28;1725579;83;21628;-76
2022/05/10 00:19:15;;;;;;;3.05;1.67;;;;;;;6.77;44.35;100437.36;1725072;83;21030;-76
2022/05/10 00:21:42;;;;;;;2.30;2.10;;;;;;;6.69;45.03;100434.35;1725533;83;21055;-75
2022/05/10 00:24:09;;;;;;;2.12;1.52;;;;;;;6.61;45.68;100432.64;1723239;82;22234;-75
2022/05/10 00:26:37;;;;;;;1.80;1.70;;;;;;;6.50;46.17;100436.58;1725466;83;21086;-75
2022/05/10 00:29:04;;;;;;;1.52;1.42;;;;;;;6.41;45.96;100435.32;1725819;83;21101;-75
2022/05/10 00:31:31;;;;;;;3.47;1.50;;;;;;;6.35;46.66;100437.94;1725783;83;21089;-75
2022/05/10 00:33:57;;;;;;;1.80;1.47;;;;;;;6.26;47.01;100434.47;1723273;83;21055;-75
2022/05/10 00:36:24;;;;;;;1.72;1.62;;;;;;;6.18;47.72;100429.70;1723862;83;21375;-76
2022/05/10 00:38:51;;;;;;;3.33;1.57;;;;;;;6.10;48.09;100434.95;1732244;82;21443;-75
2022/05/10 00:41:38;;;;;;;3.30;1.37;;;;;;;6.03;48.44;100432.34;1732748;82;21140;-75
2022/05/10 00:44:17;;;;;;;1.82;1.72;;;;;;;5.97;48.79;100433.64;1731552;82;21486;-75
2022/05/10 00:46:46;;;;;;;2.65;1.40;;;;;;;5.87;49.12;100432.33;1732643;82;21109;-75
2022/05/10 00:49:19;;;;;;;2.50;1.70;;;;;;;5.78;49.50;100428.39;1732230;82;21129;-75
2022/05/10 00:52:05;;;;;;;2.33;1.67;;;;;;;5.70;49.94;100432.75;1731920;82;21034;-75
2022/05/10 00:54:46;;;;;;;2.45;1.90;;;;;;;5.61;50.46;100427.54;1704145;82;21150;-75
2022/05/10 00:57:42;;;;;;;4.53;1.60;;;;;;;5.51;50.58;100430.13;1703734;82;21010;-75
2022/05/10 01:00:16;;;;;;;1.65;1.50;;;;;;;5.46;50.73;100436.22;1732458;82;20995;-75
2022/05/10 01:03:18;;;;;;;2.33;1.47;;;;;;;5.36;50.96;100433.63;1732544;82;21560;-75
2022/05/10 01:06:10;;;;;;;1.80;1.70;;;;;;;5.28;51.19;100430.13;1727965;82;21014;-74
2022/05/10 01:09:08;;;;;;;1.90;1.57;;;;;;;5.18;51.40;100431.84;1732367;82;21030;-75
2022/05/10 01:12:02;;;;;;;2.60;1.70;;;;;;;5.12;51.86;100433.56;1732305;82;21810;-74
2022/05/10 01:14:57;;;;;;;7.35;2.60;;;;;;;5.06;52.38;100440.95;1719894;81;21082;-75
2022/05/10 01:17:24;;;;;;;1.90;1.80;;;;;;;4.98;52.68;100433.09;1724527;83;21170;-75
2022/05/10 01:19:51;;;;;;;2.85;1.60;;;;;;;4.90;52.91;100436.11;1724610;83;21691;-75
2022/05/10 01:22:48;;;;;;;1.95;1.47;;;;;;;4.84;53.37;100435.66;1724605;83;21491;-75
2022/05/10 01:25:38;;;;;;;2.65;1.75;;;;;;;4.79;53.75;100438.69;1724695;83;21542;-76
2022/05/10 01:28:25;;;;;;;3.35;1.98;;;;;;;4.73;54.19;100441.27;1724337;83;21533;-75
2022/05/10 01:30:52;;;;;;;1.80;1.70;;;;;;;4.68;54.21;100445.59;1724818;83;21845;-75
2022/05/10 01:33:30;;;;;;;2.00;1.85;;;;;;;4.63;54.46;100444.70;1724458;83;21043;-74
2022/05/10 01:36:32;;;;;;;2.12;2.00;;;;;;;4.59;54.62;100445.53;1725946;82;21035;-75
2022/05/10 01:39:26;;;;;;;2.10;1.90;;;;;;;4.56;54.72;100438.58;1730534;82;21019;-75
2022/05/10 01:42:03;;;;;;;3.08;1.87;;;;;;;4.55;54.81;100441.18;1730903;82;21047;-76
2022/05/10 01:44:42;;;;;;;2.10;1.87;;;;;;;4.52;55.00;100434.64;1730591;82;21085;-75
2022/05/10 01:47:38;;;;;;;2.05;1.87;;;;;;;4.50;54.82;100433.77;1730548;82;21056;-75
2022/05/10 01:50:25;;;;;;;2.75;1.77;;;;;;;4.44;55.03;100434.18;1730745;82;21078;-76
2022/05/10 01:53:14;;;;;;;2.60;2.30;;;;;;;4.40;55.02;100431.55;1730470;82;21032;-76
2022/05/10 01:55:50;;;;;;;3.67;2.30;;;;;;;4.35;55.41;100427.60;1730648;82;21652;-76
2022/05/10 01:58:22;;;;;;;2.20;2.00;;;;;;;4.31;55.72;100427.16;1730728;82;21124;-76
2022/05/10 02:00:57;;;;;;;5.40;1.65;;;;;;;4.25;56.19;100424.51;1730384;82;21051;-76
2022/05/10 02:03:42;;;;;;;2.10;1.90;;;;;;;4.23;56.58;100423.64;1730923;82;21070;-76
2022/05/10 02:06:30;;;;;;;;;;;;;;;4.17;56.72;100420.58;1732958;82;21066;-76
2022/05/10 02:09:38;;;;;;;3.55;2.40;;;;;;;4.14;57.00;100424.90;1730473;82;20513;-76
2022/05/10 02:12:19;;;;;;;2.77;2.30;;;;;;;4.07;57.29;100425.29;1730305;82;22193;-75
2022/05/10 02:15:23;;;;;;;2.15;1.98;;;;;;;4.02;57.84;100427.86;1734983;81;21058;-75
2022/05/10 02:17:54;;;;;;;8.03;1.92;;;;;;;3.98;58.19;100428.67;1700986;81;21023;-75
2022/05/10 02:20:29;;;;;;;3.15;2.90;;;;;;;3.95;58.30;100435.20;1736203;82;21145;-76
2022/05/10 02:23:01;;;;;;;6.05;4.67;;;;;;;3.91;58.51;100432.11;1735729;82;21569;-75
2022/05/10 02:25:35;;;;;;;6.22;5.55;;;;;;;3.89;58.53;100432.53;1735959;82;21416;-76
2022/05/10 02:28:12;;;;;;;4.70;4.22;;;;;;;3.87;58.58;100427.75;1755438;81;21969;-77
2022/05/10 02:30:40;;;;;;;9.65;7.92;;;;;;;3.85;58.86;100434.66;1756985;81;21029;-75
2022/05/10 02:33:13;;;;;;;8.60;5.00;;;;;;;3.81;58.59;100429.86;1756733;81;21140;-76
2022/05/10 02:35:45;;;;;;;9.85;5.80;;;;;;;3.80;58.83;100431.15;1757005;81;21588;-75
2022/05/10 02:38:21;;;;;;;7.55;4.65;;;;;;;3.77;58.85;100425.95;1756912;81;21114;-75
2022/05/10 02:40:51;;;;;;;11.73;5.25;;;;;;;3.77;58.79;100432.02;1756291;81;21601;-75
2022/05/10 02:43:28;;;;;;;6.17;4.62;;;;;;;3.79;59.00;100426.83;1756846;81;21141;-76
2022/05/10 02:45:55;;;;;;;9.08;5.12;;;;;;;3.80;59.36;100433.75;1756837;81;21712;-76
2022/05/10 02:48:32;;;;;;;9.60;5.53;;;;;;;3.81;59.59;100430.30;1756743;81;21058;-75
2022/05/10 02:50:59;;;;;;;11.00;5.25;;;;;;;3.84;59.61;100438.14;1757105;81;21159;-76
2022/05/10 02:53:26;;;;;;;12.50;5.20;;;;;;;3.88;59.75;100432.08;1756738;81;21176;-76
2022/05/10 02:56:08;;;;;;;12.35;6.10;;;;;;;3.92;59.70;100429.96;1757137;81;21619;-76
2022/05/10 02:58:53;;;;;;;16.65;6.53;;;;;;;3.99;59.80;100432.17;1756907;81;21502;-76
2022/05/10 03:01:33;;;;;;;11.48;6.25;;;;;;;4.05;59.73;100437.41;1757503;81;21046;-77
2022/05/10 03:04:01;;;;;;;12.43;6.12;;;;;;;4.11;59.60;100436.59;1756850;81;21592;-75
2022/05/10 03:06:28;;;;;;;13.32;6.60;;;;;;;4.16;59.54;100436.19;1756791;81;21065;-76
2022/05/10 03:08:57;;;;;;;15.25;6.85;;;;;;;4.21;59.67;100429.28;1756667;81;21102;-76
2022/05/10 03:11:23;;;;;;;14.55;6.90;;;;;;;4.27;59.94;100428.02;1756994;81;21065;-76
2022/05/10 03:13:50;;;;;;;14.83;6.62;;;;;;;4.33;59.91;100432.38;1756795;81;21061;-76
2022/05/10 03:16:16;;;;;;;15.30;6.47;;;;;;;4.37;59.64;100432.41;1756947;81;21129;-76
2022/05/10 03:18:45;;;;;;;18.70;7.33;;;;;;;4.44;59.69;100435.92;1756605;81;21054;-76
2022/05/10 03:21:12;;;;;;;18.87;7.35;;;;;;;4.51;59.96;100431.62;1756989;81;21050;-75
2022/05/10 03:23:39;;;;;;;14.95;7.37;;;;;;;4.57;59.89;100429.02;1756990;81;21502;-75
2022/05/10 03:26:06;;;;;;;15.18;7.65;;;;;;;4.63;60.21;100435.57;1757127;81;21137;-75
2022/05/10 03:28:35;;;;;;;19.37;8.10;;;;;;;4.70;60.07;100434.73;1756881;81;23529;-76
2022/05/10 03:31:03;;;;;;;18.32;8.60;;;;;;;4.77;59.84;100435.18;1756846;81;21591;-76
2022/05/10 03:33:30;;;;;;;17.42;8.20;;;;;;;4.84;59.87;100429.14;1729513;81;21144;-75
2022/05/10 03:35:56;;;;;;;17.37;8.85;;;;;;;4.93;60.12;100435.27;1756784;81;21614;-76
2022/05/10 03:38:23;;;;;;;21.27;9.05;;;;;;;5.00;59.68;100428.74;1749142;81;21625;-75
2022/05/10 03:40:49;;;;;;;25.25;9.73;;;;;;;5.11;59.51;100434.42;1752824;81;22187;-76
2022/05/10 03:43:15;;;;;;;20.50;10.35;;;;;;;5.21;59.25;100434.46;1752851;81;21526;-76
2022/05/10 03:45:42;;;;;;;20.40;9.73;;;;;;;5.31;59.03;100437.97;1725887;83;21578;-75
2022/05/10 03:48:09;;;;;;;22.77;10.32;;;;;;;5.43;58.52;100434.50;1726028;83;21067;-75
2022/05/10 03:50:35;;;;;;;24.12;9.63;;;;;;;5.55;58.17;100438.42;1726407;83;21020;-76
2022/05/10 03:53:02;;;;;;;19.15;8.95;;;;;;;5.67;57.70;100440.16;1725930;83;21572;-75
2022/05/10 03:55:29;;;;;;;17.62;10.68;;;;;;;5.77;57.35;100438.42;1726062;83;21232;-76
2022/05/10 03:57:56;;;;;;;23.18;10.20;;;;;;;5.88;57.07;100440.58;1725892;83;21122;-76
2022/05/10 04:00:25;;;;;;;18.50;10.18;;;;;;;5.99;56.87;100439.77;1726033;83;21086;-75
2022/05/10 04:02:55;;;;;;;18.90;9.75;;;;;;;6.10;56.39;100445.81;1725981;83;21035;-76
2022/05/10 04:05:23;;;;;;;20.27;10.05;;;;;;;6.22;56.23;100443.62;1726172;83;21163;-75
2022/05/10 04:07:50;;;;;;;22.17;10.05;;;;;;;6.31;56.04;100445.78;1725993;83;21554;-76
2022/05/10 04:10:16;;;;;;;29.02;9.68;;;;;;;6.43;56.00;100438.34;1726091;83;21558;-77
2022/05/10 04:12:43;;;;;;;19.67;10.05;;;;;;;6.56;55.63;100444.87;1726497;83;21095;-75
2022/05/10 04:15:14;;;;;;;18.27;9.60;;;;;;;6.70;55.45;100442.61;1724709;83;21126;-76
2022/05/10 04:17:42;;;;;;;24.52;10.90;;;;;;;6.85;55.35;100444.74;1721059;83;21136;-76
2022/05/10 04:20:12;;;;;;;18.20;10.53;;;;;;;6.98;55.26;100437.72;1753149;81;21066;-76
2022/05/10 04:22:39;;;;;;;26.48;10.50;;;;;;;7.13;54.93;100436.73;1753307;81;21080;-76
2022/05/10 04:25:07;;;;;;;21.95;10.20;;;;;;;7.26;55.01;100438.41;1753518;81;21007;-76
2022/05/10 04:27:35;;;;;;;21.60;9.85;;;;;;;7.40;55.18;100439.20;1753449;81;21086;-76
2022/05/10 04:30:02;;;;;;;16.85;8.40;;;;;;;7.56;54.93;100437.77;1753365;81;21096;-76
2022/05/10 04:32:28;;;;;;;21.20;7.15;;;;;;;7.72;55.27;100433.30;1753100;81;21049;-75
2022/05/10 04:34:55;;;;;;;14.30;6.55;;;;;;;7.88;55.57;100430.09;1737810;81;21073;-74
2022/05/10 04:37:21;;;;;;;11.48;5.90;;;;;;;8.06;55.42;100433.86;1725205;83;21022;-75
2022/05/10 04:42:33;;;;;;;11.70;4.87;;;;;;;8.37;54.66;100432.22;1725484;83;21225;-76
2022/05/10 04:45:02;;;;;;;11.43;5.05;;;;;;;8.53;53.57;100435.14;1724739;83;21058;-76
2022/05/10 04:47:29;;;;;;;8.78;4.95;;;;;;;8.69;52.34;100424.45;1724958;83;21031;-76
2022/05/10 04:49:56;;;;;;;10.53;4.70;;;;;;;8.85;52.07;100427.32;1725095;83;21145;-75
2022/05/10 04:52:22;;;;;;;10.28;5.30;;;;;;;9.00;51.16;100424.94;1724836;83;21635;-76
2022/05/10 04:54:49;;;;;;;8.58;4.83;;;;;;;9.14;50.70;100416.86;1724961;83;21573;-75
2022/05/10 04:57:17;;;;;;;9.28;5.05;;;;;;;9.28;49.44;100419.31;1724991;83;21328;-76
2022/05/10 04:59:44;;;;;;;10.72;5.12;;;;;;;9.42;48.07;100423.04;1725216;83;21046;-76
2022/05/10 05:02:11;;;;;;;13.38;5.42;;;;;;;9.53;47.71;100421.13;1724957;83;21256;-75
2022/05/10 05:04:37;;;;;;;11.18;5.47;;;;;;;9.64;47.71;100424.42;1724823;83;21167;-76
2022/05/10 05:07:03;;;;;;;11.73;5.53;;;;;;;9.75;47.25;100418.11;1724634;83;21215;-77
2022/05/10 05:09:30;;;;;;;8.90;5.30;;;;;;;9.85;46.05;100422.32;1724615;83;21054;-75
2022/05/10 05:11:57;;;;;;;15.05;6.80;;;;;;;9.95;45.87;100421.72;1724725;83;21121;-76
2022/05/10 05:14:23;;;;;;;12.98;6.53;;;;;;;10.02;45.64;100422.91;1725103;81;21070;-76
2022/05/10 05:16:54;;;;;;;11.63;5.10;;;;;;;10.13;45.21;100421.84;1726655;83;21101;-76
2022/05/10 05:19:19;;;;;;;15.70;6.90;;;;;;;10.22;45.31;100421.66;1726839;83;21133;-76
2022/05/10 05:21:46;;;;;;;13.45;6.22;;;;;;;10.32;43.65;100419.34;1726553;83;21093;-76
2022/05/10 05:24:12;;;;;;;10.82;6.33;;;;;;;10.45;43.37;100423.89;1696711;84;21079;-76
2022/05/10 05:26:40;;;;;;;10.45;5.45;;;;;;;10.56;42.27;100426.34;1727186;83;21042;-75
2022/05/10 05:29:07;;;;;;;12.68;6.30;;;;;;;10.64;40.34;100417.84;1747284;81;21105;-76
2022/05/10 05:31:33;;;;;;;13.40;5.97;;;;;;;10.73;40.76;100417.63;1750565;81;21104;-75
2022/05/10 05:34:00;;;;;;;13.32;6.12;;;;;;;10.84;40.04;100413.91;1750445;81;21149;-76
2022/05/10 05:36:27;;;;;;;14.63;5.30;;;;;;;10.93;39.22;100412.41;1750752;81;21077;-76
2022/05/10 05:38:53;;;;;;;8.75;4.33;;;;;;;10.98;37.62;100407.91;1750523;82;21124;-76
2022/05/10 05:41:20;;;;;;;13.30;4.78;;;;;;;11.04;36.59;100407.75;1751175;81;21041;-76
2022/05/10 05:43:47;;;;;;;12.15;5.50;;;;;;;11.09;36.41;100405.88;1750429;82;21136;-76
2022/05/10 05:46:13;;;;;;;12.13;5.87;;;;;;;11.17;37.22;100399.13;1750906;81;21030;-76
2022/05/10 05:48:40;;;;;;;11.97;6.08;;;;;;;11.26;37.73;100398.05;1750597;82;21518;-76
2022/05/10 05:51:07;;;;;;;14.80;5.15;;;;;;;11.37;37.67;100398.67;1750494;82;21077;-76
2022/05/10 05:53:33;;;;;;;9.83;5.22;;;;;;;11.48;37.17;100397.97;1750684;81;21081;-75
2022/05/10 05:56:09;;;;;;;11.63;5.72;;;;;;;11.62;37.45;100398.09;1750577;82;21163;-76
2022/05/10 05:58:36;;;;;;;11.80;5.45;;;;;;;11.75;37.25;100395.56;1750724;81;21039;-76
2022/05/10 06:01:11;;;;;;;13.30;6.05;;;;;;;11.87;35.51;100400.50;1750348;82;21046;-77
2022/05/10 06:03:38;;;;;;;9.23;5.47;;;;;;;11.95;35.24;100398.15;1748443;81;21038;-75
2022/05/10 06:06:06;;;;;;;8.50;4.70;;;;;;;12.01;34.31;100399.31;1750379;82;21116;-75
2022/05/10 06:08:34;;;;;;;10.10;4.85;;;;;;;12.05;33.53;100398.31;1750746;82;21530;-74
2022/05/10 06:11:01;;;;;;;11.68;5.08;;;;;;;12.12;34.04;100393.31;1750173;82;21085;-76
2022/05/10 06:13:29;;;;;;;10.93;5.08;;;;;;;12.20;33.85;100395.26;1750676;82;21101;-75
2022/05/10 06:15:55;;;;;;;16.97;4.75;;;;;;;12.31;33.86;100396.77;1752972;81;21006;-75
2022/05/10 06:18:22;;;;;;;9.50;5.12;;;;;;;12.43;33.86;100391.13;1753913;81;21116;-75
2022/05/10 06:20:49;;;;;;;8.08;4.78;;;;;;;12.54;33.16;100385.11;1754439;81;21101;-75
2022/05/10 06:23:15;;;;;;;7.03;4.05;;;;;;;12.64;33.13;100386.56;1753882;81;21141;-75
2022/05/10 06:25:41;;;;;;;10.15;5.42;;;;;;;12.70;31.84;100385.97;1754464;81;21136;-75
2022/05/10 06:28:10;;;;;;;4.47;2.95;;;;;;;12.77;31.86;100384.88;1754097;81;21487;-75
2022/05/10 06:30:38;;;;;;;9.05;2.80;;;;;;;12.83;31.25;100389.98;1754259;81;21049;-74
2022/05/10 06:33:04;;;;;;;11.28;4.03;;;;;;;12.90;30.37;100383.59;1753870;81;21060;-77
2022/05/10 06:35:31;;;;;;;11.22;4.60;;;;;;;12.93;30.62;100374.73;1753992;81;21585;-74
2022/05/10 06:38:16;;;;;;;10.45;4.58;;;;;;;12.98;30.22;100381.59;1754219;81;21577;-75
2022/05/10 06:40:46;;;;;;;12.33;5.37;;;;;;;13.04;31.23;100380.98;1753886;81;21526;-75
2022/05/10 06:43:13;;;;;;;13.10;6.17;;;;;;;13.14;30.51;100378.47;1755592;80;21152;-75
2022/05/10 06:45:41;;;;;;;12.43;6.70;;;;;;;13.19;30.99;100385.32;1723437;82;21148;-75
2022/05/10 06:48:09;;;;;;;13.58;5.72;;;;;;;13.24;29.94;100377.25;1760113;81;21046;-75
2022/05/10 06:50:36;;;;;;;12.18;5.03;;;;;;;13.29;30.42;100377.97;1759739;81;21482;-74
2022/05/10 06:53:03;;;;;;;14.50;5.85;;;;;;;13.36;29.66;100367.66;1724120;82;21044;-75
2022/05/10 06:55:32;;;;;;;12.95;6.08;;;;;;;13.43;30.13;100368.77;1759856;81;21651;-74
2022/05/10 06:58:01;;;;;;;22.22;8.48;;;;;;;13.49;29.99;100368.58;1759777;81;21581;-75
2022/05/10 07:00:27;;;;;;;14.98;8.08;;;;;;;13.51;29.36;100371.56;1723979;82;21637;-75
2022/05/10 07:02:56;;;;;;;17.23;7.12;;;;;;;13.50;29.63;100373.81;1759719;81;21132;-75
2022/05/10 07:05:22;;;;;;;21.75;7.30;;;;;;;13.50;29.52;100368.96;1760063;81;20991;-75
2022/05/10 07:07:49;;;;;;;31.75;9.93;;;;;;;13.55;30.02;100363.09;1724208;83;21063;-75
2022/05/10 07:10:17;;;;;;;26.07;10.55;;;;;;;13.66;30.72;100358.28;1759738;81;21576;-74
2022/05/10 07:12:44;;;;;;;23.77;10.23;;;;;;;13.79;30.80;100357.89;1759807;81;21517;-75
2022/05/10 07:15:17;;;;;;;24.15;10.05;;;;;;;13.92;30.23;100363.16;1759909;81;21082;-75
2022/05/10 07:17:45;;;;;;;22.67;8.58;;;;;;;14.00;29.07;100358.44;1759412;81;21054;-75
2022/05/10 07:20:14;;;;;;;19.25;9.13;;;;;;;13.99;29.02;100354.55;1724008;83;21087;-75
2022/05/10 07:22:41;;;;;;;27.48;11.20;;;;;;;13.99;28.49;100350.58;1759992;81;21542;-81
2022/05/10 07:25:08;;;;;;;26.77;10.78;;;;;;;14.02;29.43;100346.05;1759709;81;21077;-76
2022/05/10 07:27:36;;;;;;;27.45;9.28;;;;;;;14.11;29.29;100341.73;1759872;81;21014;-74
2022/05/10 07:30:03;;;;;;;24.65;9.35;;;;;;;14.12;27.30;100337.28;1723945;83;21173;-77
2022/05/10 07:32:30;;;;;;;15.95;8.83;;;;;;;14.04;28.76;100348.17;1751008;81;22245;-74
2022/05/10 07:34:56;;;;;;;20.43;7.65;;;;;;;13.99;28.94;100336.88;1754029;81;22017;-75
2022/05/10 07:37:22;;;;;;;16.93;7.22;;;;;;;14.00;28.12;100337.73;1753990;81;21949;-76
2022/05/10 07:39:49;;;;;;;21.25;7.87;;;;;;;14.03;27.55;100331.02;1754145;81;21472;-76
2022/05/10 07:42:15;;;;;;;16.90;7.47;;;;;;;14.05;28.65;100328.70;1753983;81;21566;-76
2022/05/10 07:44:43;;;;;;;11.88;6.08;;;;;;;14.16;27.99;100332.77;1754093;81;21890;-74
2022/05/10 07:47:09;;;;;;;18.23;6.28;;;;;;;14.18;27.67;100324.31;1754216;81;21823;-75
2022/05/10 07:49:36;;;;;;;13.22;5.28;;;;;;;14.11;27.88;100333.78;1753741;81;21067;-75
2022/05/10 07:52:04;;;;;;;11.83;5.22;;;;;;;14.02;27.79;100322.23;1753843;81;21011;-75
2022/05/10 07:54:31;;;;;;;7.55;4.72;;;;;;;14.02;27.98;100322.23;1753843;81;21569;-75
2022/05/10 07:56:57;;;;;;;9.93;4.97;;;;;;;14.13;28.56;100321.36;1753851;81;21582;-74
2022/05/10 07:59:24;;;;;;;8.58;4.00;;;;;;;14.29;27.43;100315.53;1753971;81;21166;-75
2022/05/10 08:01:51;;;;;;;7.72;4.35;;;;;;;14.38;27.60;100307.22;1754101;81;21570;-75
2022/05/10 08:04:17;;;;;;;9.88;5.33;;;;;;;14.55;27.27;100301.75;1753939;81;21515;-75
2022/05/10 08:06:46;;;;;;;10.23;5.15;;;;;;;14.67;27.37;100306.13;1754363;81;21562;-74
2022/05/10 08:09:14;;;;;;;14.43;5.72;;;;;;;14.73;27.16;100299.75;1753810;81;21589;-74
2022/05/10 08:11:43;;;;;;;14.70;4.90;;;;;;;14.74;27.50;100298.80;1753798;81;21822;-74
2022/05/10 08:14:10;;;;;;;11.03;5.35;;;;;;;14.77;27.17;100298.69;1754177;81;21087;-75
2022/05/10 08:16:38;;;;;;;11.55;5.37;;;;;;;14.78;27.81;100292.48;1751462;81;21122;-75
2022/05/10 08:19:05;;;;;;;11.15;5.75;;;;;;;14.84;26.79;100296.22;1750454;82;21106;-75
2022/05/10 08:21:31;;;;;;;20.20;7.80;;;;;;;14.81;26.69;100298.98;1750644;82;21015;-75
2022/05/10 08:23:58;;;;;;;12.60;6.87;;;;;;;14.72;26.73;100290.06;1750211;82;21122;-75
2022/05/10 08:26:25;;;;;;;11.83;6.03;;;;;;;14.78;28.11;100281.89;1750335;82;21100;-75
2022/05/10 08:28:52;;;;;;;15.00;6.15;;;;;;;14.93;27.80;100284.83;1723211;82;21534;-75
2022/05/10 08:31:20;;;;;;;15.18;6.90;;;;;;;15.08;26.90;100284.23;1750496;82;21059;-75
2022/05/10 08:33:46;;;;;;;18.57;7.22;;;;;;;15.10;27.06;100283.70;1750359;82;20987;-75
2022/05/10 08:36:13;;;;;;;14.55;6.03;;;;;;;15.12;26.67;100279.19;1750437;82;21145;-75
2022/05/10 08:38:39;;;;;;;13.18;5.67;;;;;;;15.03;27.46;100282.23;1750767;82;21107;-75
2022/05/10 08:41:42;;;;;;;10.43;5.00;;;;;;;14.96;26.46;100278.08;1751211;81;21535;-76
2022/05/10 08:44:18;;;;;;;8.65;5.12;;;;;;;14.97;26.35;100277.17;1726939;83;21588;-75
2022/05/10 08:46:49;;;;;;;15.45;7.30;;;;;;;15.10;26.59;100263.81;1726840;83;21148;-75
2022/05/10 08:49:39;;;;;;;16.80;7.30;;;;;;;15.30;27.08;100274.92;1701102;83;21557;-76
2022/05/10 08:52:06;;;;;;;14.20;6.28;;;;;;;15.48;26.59;100269.27;1726869;83;21105;-75
2022/05/10 08:54:36;;;;;;;6.67;4.20;;;;;;;15.56;25.61;100268.48;1726642;83;21124;-75
2022/05/10 08:57:20;;;;;;;5.80;3.15;;;;;;;15.41;25.10;100262.52;1726330;83;21034;-74
2022/05/10 09:00:13;;;;;;;5.67;3.33;;;;;;;15.24;25.27;100262.77;1726176;83;21098;-80
2022/05/10 09:02:54;;;;;;;4.87;1.80;;;;;;;15.15;25.43;100253.89;1726781;83;21539;-81
2022/05/10 09:05:41;;;;;;;1.75;1.65;;;;;;;15.31;26.07;100247.93;1727204;83;21089;-82
2022/05/10 09:08:25;;;;;;;2.05;1.77;;;;;;;15.57;25.74;100244.17;1726575;83;21386;-82
2022/05/10 09:10:59;;;;;;;4.55;2.22;;;;;;;15.86;26.16;100240.25;1727280;83;21062;-76
2022/05/10 09:13:26;;;;;;;6.58;2.50;;;;;;;16.10;25.33;100236.08;1726986;83;21140;-75
2022/05/10 09:15:58;;;;;;;2.20;1.57;;;;;;;16.29;26.27;100235.63;1727122;81;21093;-75
2022/05/10 09:18:36;;;;;;;2.12;1.30;;;;;;;16.50;25.20;100236.40;1725573;83;20998;-75
2022/05/10 09:21:24;;;;;;;2.52;1.50;;;;;;;16.66;24.89;100236.54;1725692;83;21588;-75
2022/05/10 09:24:33;;;;;;;1.80;1.70;;;;;;;16.79;25.24;100230.62;1726724;83;21083;-75
2022/05/10 09:27:09;;;;;;;2.37;1.57;;;;;;;16.97;25.34;100222.24;1726901;83;21085;-75
2022/05/10 09:29:49;;;;;;;2.90;1.35;;;;;;;17.15;24.98;100218.66;1726108;83;21161;-76
2022/05/10 09:35:22;;;;;;;6.67;1.80;;;;;;;17.29;23.57;100223.27;1729260;81;21136;-74
2022/05/10 09:38:08;;;;;;;3.00;1.30;;;;;;;17.23;23.96;100219.58;1751660;81;21014;-75
2022/05/10 09:40:38;;;;;;;3.92;1.37;;;;;;;17.08;23.74;100211.46;1750913;81;21070;-75
2022/05/10 09:43:22;;;;;;;3.50;1.20;;;;;;;17.01;23.38;100210.06;1751333;81;21162;-75
2022/05/10 09:46:10;;;;;;;4.92;1.60;;;;;;;16.95;24.51;100197.06;1750829;81;21081;-76
2022/05/10 09:48:39;;;;;;;2.40;1.30;;;;;;;17.10;23.74;100192.78;1747009;81;21077;-75
2022/05/10 09:51:36;;;;;;;6.67;1.60;;;;;;;17.05;24.35;100183.70;1723435;81;21506;-76
2022/05/10 09:54:04;;;;;;;3.08;1.35;;;;;;;17.04;23.88;100183.30;1751480;81;21078;-74
2022/05/10 09:56:37;;;;;;;3.55;1.80;;;;;;;17.02;23.66;100179.01;1750999;81;21135;-74
2022/05/10 09:59:15;;;;;;;3.17;1.32;;;;;;;17.04;23.62;100181.97;1751467;81;20955;-76
2022/05/10 10:01:48;;;;;;;5.58;1.90;;;;;;;17.00;22.87;100179.09;1750802;81;21046;-75
2022/05/10 10:04:31;;;;;;;2.83;1.80;;;;;;;17.00;22.99;100180.89;1751289;81;21061;-74
2022/05/10 10:07:17;;;;;;;41.65;2.37;;;;;;;16.96;22.90;100170.00;1751079;81;21065;-74
2022/05/10 10:09:48;;;;;;;3.35;1.90;;;;;;;16.86;23.66;100162.95;1751305;81;21834;-75
2022/05/10 10:12:36;;;;;;;8.00;1.30;;;;;;;16.92;24.26;100173.30;1750881;81;20975;-75
2022/05/10 10:15:34;;;;;;;3.62;1.60;;;;;;;17.12;24.49;100162.13;1751193;81;21070;-73
2022/05/10 10:18:08;;;;;;;3.72;1.50;;;;;;;17.41;24.14;100165.91;1751203;81;20999;-75
2022/05/10 10:20:51;;;;;;;4.37;1.50;;;;;;;17.56;23.34;100153.13;1750901;81;21552;-76
2022/05/10 10:23:26;;;;;;;4.83;1.55;;;;;;;17.65;23.20;100147.77;1750972;81;21226;-74
2022/05/10 10:25:55;;;;;;;7.42;1.60;;;;;;;17.72;23.00;100141.20;1751546;81;21049;-77
2022/05/10 10:28:29;;;;;;;3.17;2.00;;;;;;;17.80;23.26;100145.64;1751048;81;21041;-75
2022/05/10 10:31:15;;;;;;;5.03;1.90;;;;;;;17.91;23.89;100147.73;1751597;81;21022;-73
2022/05/10 10:33:50;;;;;;;5.00;2.20;;;;;;;17.90;22.56;100146.00;1751110;81;21042;-76
2022/05/10 10:36:22;;;;;;;;;;;;;;;17.54;22.92;100139.53;1712451;81;21111;-76
2022/05/10 10:39:26;;;;;;;3.90;1.90;;;;;;;17.40;22.88;100134.47;1726872;83;20227;-76
2022/05/10 10:42:30;;;;;;;7.83;1.90;;;;;;;17.42;22.53;100133.91;1619268;83;21515;-74
2022/05/10 10:44:58;;;;;;;3.00;2.00;;;;;;;17.38;23.12;100127.50;1726001;83;21561;-74
2022/05/10 10:47:39;;;;;;;4.28;1.62;;;;;;;17.32;22.95;100131.36;1727038;83;21073;-75
2022/05/10 10:50:28;;;;;;;5.72;1.77;;;;;;;17.18;23.06;100126.77;1696100;84;21144;-74
2022/05/10 10:52:57;;;;;;;2.75;1.77;;;;;;;17.23;24.04;100122.52;1726586;83;20993;-74
2022/05/10 10:55:28;;;;;;;4.47;2.05;;;;;;;17.37;23.74;100116.02;1726813;83;21089;-75
2022/05/10 10:58:33;;;;;;;6.25;1.72;;;;;;;17.48;22.40;100110.10;1696660;84;21266;-75
2022/05/10 11:01:47;;;;;;;2.83;1.90;;;;;;;17.53;23.13;100104.55;1696542;84;21085;-76
2022/05/10 11:04:51;;;;;;;5.05;2.20;;;;;;;17.69;23.24;100102.77;1696352;84;21872;-75
2022/05/10 11:07:30;;;;;;;4.33;2.25;;;;;;;17.86;23.67;100096.52;1696240;84;21036;-75
2022/05/10 11:10:12;;;;;;;4.12;2.60;;;;;;;17.89;22.92;100091.54;1691614;84;21062;-74
2022/05/10 11:12:56;;;;;;;4.33;1.90;;;;;;;17.83;22.28;100090.88;1674266;84;21091;-75
2022/05/10 11:15:39;;;;;;;3.92;2.17;;;;;;;17.79;23.25;100089.34;1696687;84;21105;-75
2022/05/10 11:18:43;;;;;;;8.08;2.47;;;;;;;17.89;23.90;100080.89;1696592;84;21514;-74
2022/05/10 11:21:16;;;;;;;5.78;3.00;;;;;;;18.10;23.27;100074.33;1696541;84;21640;-75
2022/05/10 11:24:10;;;;;;;7.72;2.70;;;;;;;18.14;21.91;100077.22;1696372;84;21038;-74
2022/05/10 11:27:10;;;;;;;4.40;2.15;;;;;;;17.98;23.01;100071.04;1696742;84;21066;-75
2022/05/10 11:29:55;;;;;;;4.90;2.80;;;;;;;17.80;21.60;100064.91;1696473;84;21024;-75
2022/05/10 11:33:01;;;;;;;6.10;2.10;;;;;;;17.57;22.63;100063.54;1696672;84;21767;-75
2022/05/10 11:35:56;;;;;;;6.33;2.35;;;;;;;17.72;22.86;100065.34;1683571;84;21597;-75
2022/05/10 11:38:46;;;;;;;6.20;1.80;;;;;;;18.06;23.55;100058.63;1696540;84;21039;-75
2022/05/10 11:41:49;;;;;;;6.97;2.15;;;;;;;18.41;22.93;100047.27;1723771;83;21089;-75
2022/05/10 11:44:47;;;;;;;6.62;2.50;;;;;;;18.58;22.04;100042.27;1725434;83;20987;-75
2022/05/10 11:47:44;;;;;;;6.85;2.22;;;;;;;18.28;21.83;100042.27;1725876;83;21211;-75
2022/05/10 11:51:38;;;;;;;3.58;1.90;;;;;;;18.19;23.50;100040.52;1725303;83;21061;-74
2022/05/10 11:53:41;;;;;;;4.22;1.80;;;;;;;18.27;23.12;100039.21;1721625;83;21085;-74
2022/05/10 11:56:07;;;;;;;4.42;2.30;;;;;;;18.50;22.84;100026.73;1725479;82;21145;-74
2022/05/10 11:58:35;;;;;;;6.45;2.33;;;;;;;18.74;22.83;100022.20;1725357;83;21056;-74
2022/05/10 12:01:05;;;;;;;4.28;2.30;;;;;;;18.94;21.76;100003.20;1725477;83;21525;-76
2022/05/10 12:03:43;;;;;;;5.20;2.12;;;;;;;18.96;22.07;100003.12;1725008;83;21081;-74